Time;durP1;ratioP1;P1;durP2;ratioP2;P2;SDS_P1;SDS_P2;PMS_P1;PMS_P2;Temp;Humidity;BMP_temperature;BMP_pressure;BME280_temperature;BME280_humidity;BME280_pressure;Samples;Min_cycle;Max_cycle;Signal;HPM_P1;HPM_P2
2021/04/29 00:01:49;;;;;;;42.00;34.42;;;9.60;83.60;;;;;;5051021;28;20070;-80
2021/04/29 00:04:15;;;;;;;42.65;33.20;;;9.50;83.50;;;;;;5053063;28;20033;-79
2021/04/29 00:06:41;;;;;;;43.05;32.50;;;9.50;83.60;;;;;;5044741;28;20043;-77
2021/04/29 00:09:08;;;;;;;40.20;32.67;;;9.50;83.80;;;;;;5040608;28;20041;-79
2021/04/29 00:11:34;;;;;;;41.05;32.97;;;9.40;83.80;;;;;;5034451;28;20071;-76
2021/04/29 00:14:01;;;;;;;40.60;31.23;;;9.40;83.90;;;;;;5048697;28;20037;-77
2021/04/29 00:16:27;;;;;;;40.17;31.63;;;9.40;83.90;;;;;;5048188;28;20158;-78
2021/04/29 00:18:53;;;;;;;40.60;31.45;;;9.30;84.00;;;;;;5044794;28;20099;-80
2021/04/29 00:21:19;;;;;;;43.28;33.42;;;9.30;84.20;;;;;;5029170;28;20033;-77
2021/04/29 00:23:44;;;;;;;40.55;31.20;;;9.20;84.40;;;;;;5032547;28;20029;-74
2021/04/29 00:26:10;;;;;;;40.25;32.05;;;9.10;84.40;;;;;;5029770;28;20048;-80
2021/04/29 00:28:36;;;;;;;39.33;31.98;;;9.10;84.70;;;;;;5030073;28;20041;-74
2021/04/29 00:31:02;;;;;;;40.08;31.65;;;9.10;84.80;;;;;;5035010;28;20079;-74
2021/04/29 00:33:28;;;;;;;39.42;31.10;;;9.10;85.10;;;;;;5030402;28;20029;-77
2021/04/29 00:35:54;;;;;;;42.33;30.65;;;9.00;85.20;;;;;;5025966;28;20041;-74
2021/04/29 00:38:19;;;;;;;42.58;32.58;;;8.90;85.30;;;;;;5034745;28;20405;-76
2021/04/29 00:40:45;;;;;;;40.60;31.88;;;8.90;85.50;;;;;;5035313;28;20080;-77
2021/04/29 00:43:14;;;;;;;42.30;31.92;;;8.80;85.80;;;;;;5032152;28;20033;-79
2021/04/29 00:45:40;;;;;;;41.42;31.30;;;8.80;85.80;;;;;;5032276;28;20041;-76
2021/04/29 00:48:07;;;;;;;38.83;31.35;;;8.80;85.70;;;;;;5029664;28;20056;-77
2021/04/29 00:50:32;;;;;;;38.88;29.35;;;8.70;85.70;;;;;;5035063;28;20064;-75
2021/04/29 00:52:58;;;;;;;42.60;30.58;;;8.70;85.70;;;;;;5033863;28;20033;-74
2021/04/29 00:55:24;;;;;;;39.92;31.40;;;8.70;85.50;;;;;;5033578;28;20049;-78
2021/04/29 00:57:50;;;;;;;38.03;28.95;;;8.70;85.70;;;;;;5031862;28;20045;-79
2021/04/29 01:00:16;;;;;;;39.20;30.67;;;8.60;85.70;;;;;;5031703;28;20108;-75
2021/04/29 01:02:52;;;;;;;43.83;31.27;;;8.60;85.80;;;;;;5032926;28;20033;-77
2021/04/29 01:05:29;;;;;;;36.53;31.00;;;8.60;85.90;;;;;;5033933;28;20071;-78
2021/04/29 01:08:02;;;;;;;44.58;31.33;;;8.60;85.80;;;;;;5035630;28;20094;-76
2021/04/29 01:10:33;;;;;;;47.20;31.20;;;8.60;85.60;;;;;;5037985;28;20024;-74
2021/04/29 01:13:11;;;;;;;42.45;32.85;;;8.60;85.40;;;;;;5054963;28;20033;-76
2021/04/29 01:15:40;;;;;;;41.80;32.45;;;8.60;85.50;;;;;;5051895;28;20028;-78
2021/04/29 01:18:08;;;;;;;39.33;30.52;;;8.70;85.40;;;;;;5049695;28;20047;-76
2021/04/29 01:21:03;;;;;;;40.90;31.30;;;8.70;85.30;;;;;;5052837;28;20028;-75
2021/04/29 01:23:41;;;;;;;43.30;30.63;;;8.70;85.10;;;;;;5049522;28;20121;-79
2021/04/29 01:26:16;;;;;;;40.97;31.67;;;8.80;84.90;;;;;;5047319;28;20048;-79
2021/04/29 01:28:42;;;;;;;35.08;29.50;;;8.80;84.90;;;;;;5036331;28;20065;-78
2021/04/29 01:31:08;;;;;;;42.08;31.35;;;8.80;84.90;;;;;;5040300;28;20131;-75
2021/04/29 01:33:36;;;;;;;39.92;30.92;;;8.90;84.90;;;;;;5053328;28;20044;-79
2021/04/29 01:36:02;;;;;;;39.63;30.50;;;8.90;84.60;;;;;;5052145;28;20033;-76
2021/04/29 01:38:28;;;;;;;42.28;30.48;;;8.90;84.90;;;;;;5046473;28;20056;-77
2021/04/29 01:40:55;;;;;;;41.92;31.80;;;9.00;85.10;;;;;;5054970;28;20037;-80
2021/04/29 01:43:23;;;;;;;37.03;30.85;;;9.00;85.30;;;;;;5049840;28;20037;-78
2021/04/29 01:45:48;;;;;;;38.05;31.58;;;9.00;85.40;;;;;;5035156;28;20020;-78
2021/04/29 01:48:14;;;;;;;41.83;30.85;;;9.10;85.50;;;;;;5051908;28;20556;-77
2021/04/29 01:50:40;;;;;;;37.85;30.50;;;9.10;85.40;;;;;;5053826;28;20033;-77
2021/04/29 01:53:06;;;;;;;37.80;32.65;;;9.10;85.30;;;;;;5050850;28;20042;-77
2021/04/29 01:55:33;;;;;;;37.45;31.73;;;9.10;85.30;;;;;;5047881;28;20029;-74
2021/04/29 01:57:59;;;;;;;37.55;31.38;;;9.10;85.20;;;;;;5050270;28;20040;-76
2021/04/29 02:00:25;;;;;;;41.08;32.13;;;9.10;85.10;;;;;;5051504;28;20036;-75
2021/04/29 02:02:51;;;;;;;37.40;31.35;;;9.10;85.10;;;;;;5048079;28;20032;-77
2021/04/29 02:05:16;;;;;;;38.10;32.20;;;9.10;85.10;;;;;;5043636;28;20040;-77
2021/04/29 02:07:42;;;;;;;39.85;32.97;;;9.20;85.20;;;;;;5052603;28;20175;-75
2021/04/29 02:10:09;;;;;;;45.95;34.45;;;9.20;85.60;;;;;;5065575;28;20029;-75
2021/04/29 02:12:43;;;;;;;48.97;37.78;;;9.20;86.10;;;;;;5052291;28;20060;-77
2021/04/29 02:15:11;;;;;;;46.07;35.47;;;9.20;86.50;;;;;;5046815;28;20029;-76
2021/04/29 02:17:52;;;;;;;48.08;37.25;;;9.20;86.90;;;;;;5052544;28;20482;-79
2021/04/29 02:20:22;;;;;;;50.63;39.50;;;9.10;87.10;;;;;;5051401;28;20029;-80
2021/04/29 02:22:49;;;;;;;51.08;39.78;;;9.10;87.20;;;;;;5053528;28;20043;-80
2021/04/29 02:25:20;;;;;;;50.03;41.17;;;9.10;87.60;;;;;;5051648;28;20037;-77
2021/04/29 02:27:46;;;;;;;48.65;39.67;;;9.10;87.70;;;;;;5036214;28;20190;-77
2021/04/29 02:30:14;;;;;;;46.95;39.83;;;8.90;87.90;;;;;;5049140;28;20374;-79
2021/04/29 02:32:39;;;;;;;51.47;40.88;;;8.90;88.10;;;;;;5052058;28;20495;-75
2021/04/29 02:35:08;;;;;;;52.53;41.20;;;8.80;88.10;;;;;;5030501;28;20033;-78
2021/04/29 02:37:35;;;;;;;53.58;39.40;;;8.90;88.20;;;;;;5045467;28;20025;-76
2021/04/29 02:40:01;;;;;;;50.53;41.03;;;8.90;88.20;;;;;;5048585;28;20032;-76
2021/04/29 02:42:28;;;;;;;49.30;39.15;;;8.90;88.10;;;;;;5053902;28;20309;-77
2021/04/29 02:44:54;;;;;;;48.95;39.17;;;8.80;88.00;;;;;;5051092;28;20044;-75
2021/04/29 02:47:20;;;;;;;50.65;39.78;;;8.80;88.10;;;;;;5050335;28;20127;-79
2021/04/29 02:49:46;;;;;;;49.80;38.92;;;8.80;88.10;;;;;;5052287;28;20125;-75
2021/04/29 02:52:12;;;;;;;50.97;38.58;;;8.80;88.20;;;;;;5037909;28;20207;-76
2021/04/29 02:54:38;;;;;;;46.17;38.30;;;8.70;88.40;;;;;;5046456;28;20037;-79
2021/04/29 02:57:04;;;;;;;49.65;39.47;;;8.70;88.30;;;;;;5033322;28;20040;-75
2021/04/29 02:59:30;;;;;;;49.55;39.95;;;8.80;88.30;;;;;;5050831;28;20029;-76
2021/04/29 03:01:56;;;;;;;47.33;39.08;;;8.70;88.40;;;;;;5051863;28;20154;-75
2021/04/29 03:04:21;;;;;;;50.22;39.25;;;8.80;88.50;;;;;;5049780;28;20347;-81
2021/04/29 03:06:47;;;;;;;50.30;39.03;;;8.70;88.60;;;;;;5052229;28;20017;-80
2021/04/29 03:09:13;;;;;;;48.00;39.17;;;8.60;88.70;;;;;;5049299;28;20163;-75
2021/04/29 03:11:38;;;;;;;48.20;36.35;;;8.60;88.80;;;;;;5049244;28;20391;-78
2021/04/29 03:14:04;;;;;;;49.25;36.85;;;8.60;88.70;;;;;;5050874;28;20243;-75
2021/04/29 03:16:30;;;;;;;43.10;32.78;;;8.60;88.50;;;;;;5046457;28;20040;-78
2021/04/29 03:18:56;;;;;;;43.38;33.80;;;8.50;88.00;;;;;;5052137;28;20539;-76
2021/04/29 03:21:22;;;;;;;48.17;35.65;;;8.60;88.20;;;;;;5049418;28;20063;-79
2021/04/29 03:23:47;;;;;;;48.38;36.30;;;8.50;88.60;;;;;;5058462;28;20502;-80
2021/04/29 03:26:13;;;;;;;44.75;34.65;;;8.60;88.70;;;;;;5047824;28;20028;-76
2021/04/29 03:28:39;;;;;;;48.50;35.38;;;8.50;88.70;;;;;;5037051;28;20064;-76
2021/04/29 03:31:04;;;;;;;46.75;36.22;;;8.50;88.80;;;;;;5047718;28;20049;-76
2021/04/29 03:33:30;;;;;;;49.20;36.45;;;8.40;88.80;;;;;;5050615;28;20127;-80
2021/04/29 03:35:56;;;;;;;48.67;35.88;;;8.40;88.90;;;;;;5047560;28;20052;-77
2021/04/29 03:38:21;;;;;;;48.15;35.70;;;8.40;88.90;;;;;;5048751;28;20469;-77
2021/04/29 03:40:47;;;;;;;49.40;36.17;;;8.40;88.90;;;;;;5052386;28;20449;-80
2021/04/29 03:43:13;;;;;;;49.92;37.25;;;8.40;88.80;;;;;;5036175;28;20025;-75
2021/04/29 03:45:38;;;;;;;49.80;37.55;;;8.40;88.90;;;;;;5043610;28;20614;-76
2021/04/29 03:48:05;;;;;;;48.55;37.58;;;8.40;88.90;;;;;;5048694;28;20040;-79
2021/04/29 03:50:30;;;;;;;46.72;36.92;;;8.40;88.90;;;;;;5050579;28;20036;-81
2021/04/29 03:52:56;;;;;;;49.83;38.42;;;8.30;88.80;;;;;;5051499;28;20428;-80
2021/04/29 03:55:21;;;;;;;51.03;38.88;;;8.30;88.60;;;;;;5048928;28;20404;-75
2021/04/29 03:57:47;;;;;;;49.03;37.58;;;8.40;88.80;;;;;;5033050;28;20069;-79
2021/04/29 04:00:14;;;;;;;50.15;36.90;;;8.30;88.70;;;;;;5026267;28;20484;-75
2021/04/29 04:02:40;;;;;;;45.53;36.08;;;8.30;88.60;;;;;;5031508;28;20044;-78
2021/04/29 04:05:06;;;;;;;45.45;34.03;;;8.40;88.60;;;;;;5029869;28;20033;-79
2021/04/29 04:07:33;;;;;;;44.88;36.08;;;8.30;88.60;;;;;;5025173;28;20392;-76
2021/04/29 04:09:59;;;;;;;45.97;34.58;;;8.30;88.90;;;;;;5032106;28;20028;-79
2021/04/29 04:12:24;;;;;;;42.85;32.17;;;8.20;88.70;;;;;;5032513;28;20152;-79
2021/04/29 04:14:50;;;;;;;41.78;31.92;;;8.20;88.20;;;;;;5029843;28;20042;-77
2021/04/29 04:17:16;;;;;;;41.33;31.25;;;8.20;88.30;;;;;;5026830;28;20044;-75
2021/04/29 04:19:41;;;;;;;43.00;32.90;;;8.10;88.30;;;;;;5026542;28;20108;-77
2021/04/29 04:22:07;;;;;;;43.20;32.22;;;8.10;88.20;;;;;;5026825;28;20040;-80
2021/04/29 04:24:33;;;;;;;39.10;32.08;;;8.10;88.30;;;;;;5030355;28;20385;-78
2021/04/29 04:26:58;;;;;;;41.22;30.67;;;8.10;88.30;;;;;;5028637;28;20129;-77
2021/04/29 04:29:24;;;;;;;40.00;31.15;;;8.10;88.40;;;;;;5022043;28;20052;-74
2021/04/29 04:31:50;;;;;;;38.22;30.98;;;8.10;88.30;;;;;;5028278;28;20026;-78
2021/04/29 04:34:15;;;;;;;42.65;32.60;;;8.10;88.10;;;;;;5028000;28;20488;-76
2021/04/29 04:36:41;;;;;;;40.97;31.52;;;8.10;88.30;;;;;;5026331;28;20392;-79
2021/04/29 04:39:07;;;;;;;37.85;30.20;;;8.10;88.40;;;;;;5023929;28;20536;-79
2021/04/29 04:41:32;;;;;;;41.72;30.42;;;8.10;88.30;;;;;;5029221;28;20044;-75
2021/04/29 04:43:58;;;;;;;39.90;30.27;;;8.20;88.40;;;;;;5027414;28;20037;-76
2021/04/29 04:46:24;;;;;;;37.50;29.95;;;8.10;88.40;;;;;;5029194;28;20044;-79
2021/04/29 04:48:50;;;;;;;40.08;30.77;;;8.10;88.30;;;;;;5025588;28;20075;-80
2021/04/29 04:51:16;;;;;;;40.03;30.42;;;8.10;88.30;;;;;;5026495;28;20037;-76
2021/04/29 04:53:42;;;;;;;40.20;30.95;;;8.10;88.40;;;;;;5027588;28;20041;-78
2021/04/29 04:56:07;;;;;;;42.60;31.23;;;8.10;88.20;;;;;;5026609;28;20114;-78
2021/04/29 04:58:33;;;;;;;38.85;30.17;;;8.10;88.20;;;;;;5024455;28;20033;-80
2021/04/29 05:00:59;;;;;;;38.75;29.35;;;8.10;88.20;;;;;;5027915;28;20057;-76
2021/04/29 05:03:26;;;;;;;34.92;27.77;;;8.10;88.40;;;;;;5026262;28;20121;-79
2021/04/29 05:05:52;;;;;;;36.15;26.05;;;8.00;88.20;;;;;;5026948;28;20029;-79
2021/04/29 05:08:17;;;;;;;30.15;24.58;;;8.00;88.20;;;;;;5027322;28;20367;-80
2021/04/29 05:10:43;;;;;;;34.25;27.13;;;7.90;88.30;;;;;;5028130;28;20048;-75
2021/04/29 05:13:09;;;;;;;32.10;25.38;;;7.90;88.30;;;;;;5026743;28;20072;-77
2021/04/29 05:15:36;;;;;;;31.10;25.75;;;7.90;88.30;;;;;;5019761;28;20033;-79
2021/04/29 05:18:02;;;;;;;36.10;26.33;;;7.90;88.20;;;;;;5026452;28;20037;-77
2021/04/29 05:20:28;;;;;;;33.58;25.92;;;7.90;88.20;;;;;;5025295;28;21482;-78
2021/04/29 05:22:54;;;;;;;35.58;26.80;;;7.90;88.30;;;;;;5026350;28;20033;-75
2021/04/29 05:25:22;;;;;;;31.92;25.17;;;7.90;88.30;;;;;;5027230;28;20312;-80
2021/04/29 05:27:48;;;;;;;32.90;24.70;;;7.80;88.10;;;;;;5025598;28;20022;-70
2021/04/29 05:30:14;;;;;;;33.78;24.20;;;7.80;88.40;;;;;;5042014;28;20157;-73
2021/04/29 05:32:40;;;;;;;32.65;23.88;;;7.80;88.10;;;;;;5030824;28;20304;-72
2021/04/29 05:35:06;;;;;;;27.92;21.75;;;7.90;88.10;;;;;;5028833;28;20135;-71
2021/04/29 05:37:32;;;;;;;32.28;22.63;;;7.90;87.60;;;;;;5032473;28;20032;-71
2021/04/29 05:39:57;;;;;;;31.48;22.25;;;7.90;87.60;;;;;;5034630;28;20022;-70
2021/04/29 05:42:23;;;;;;;30.58;22.85;;;7.80;87.50;;;;;;5029301;28;20431;-71
2021/04/29 05:44:49;;;;;;;31.30;21.92;;;7.80;87.30;;;;;;5028720;28;20074;-72
2021/04/29 05:47:15;;;;;;;28.75;21.60;;;7.80;87.50;;;;;;5029222;28;20075;-73
2021/04/29 05:49:42;;;;;;;35.97;21.60;;;7.80;87.40;;;;;;5034018;28;20160;-72
2021/04/29 05:52:11;;;;;;;33.47;23.63;;;7.70;87.20;;;;;;5030951;28;20347;-69
2021/04/29 05:54:37;;;;;;;34.42;24.65;;;7.80;87.40;;;;;;5033154;28;20045;-72
2021/04/29 05:57:03;;;;;;;34.78;24.10;;;7.80;87.50;;;;;;5031601;28;20048;-72
2021/04/29 05:59:29;;;;;;;31.40;23.23;;;7.70;87.40;;;;;;5032664;28;20098;-72
2021/04/29 06:01:55;;;;;;;29.92;21.92;;;7.80;87.50;;;;;;5034959;28;20055;-71
2021/04/29 06:04:20;;;;;;;28.75;21.60;;;7.70;86.90;;;;;;5031454;28;20067;-69
2021/04/29 06:06:48;;;;;;;26.83;20.67;;;7.60;86.60;;;;;;5034126;28;21333;-68
2021/04/29 06:09:15;;;;;;;31.25;21.15;;;7.60;86.10;;;;;;5034975;28;20047;-70
2021/04/29 06:11:41;;;;;;;28.50;20.65;;;7.60;86.20;;;;;;5040726;28;20037;-73
2021/04/29 06:14:07;;;;;;;26.80;19.65;;;7.50;86.20;;;;;;5048926;28;20242;-73
2021/04/29 06:16:32;;;;;;;28.60;18.83;;;7.40;86.30;;;;;;5049054;28;20103;-73
2021/04/29 06:18:58;;;;;;;30.48;20.95;;;7.30;85.90;;;;;;5053211;28;20044;-69
2021/04/29 06:21:24;;;;;;;28.60;18.30;;;7.30;86.20;;;;;;5042803;28;20032;-72
2021/04/29 06:23:49;;;;;;;29.92;19.90;;;7.20;86.10;;;;;;5053210;28;21476;-72
2021/04/29 06:26:15;;;;;;;26.88;18.75;;;7.10;87.10;;;;;;5050790;28;20119;-72
2021/04/29 06:28:41;;;;;;;27.77;19.40;;;7.10;86.70;;;;;;5046967;28;20040;-71
2021/04/29 06:31:08;;;;;;;25.65;19.30;;;7.10;86.90;;;;;;5043791;28;20048;-72
2021/04/29 06:33:33;;;;;;;28.80;20.27;;;7.00;87.10;;;;;;5030652;28;20593;-69
2021/04/29 06:35:59;;;;;;;27.63;20.40;;;7.00;87.10;;;;;;5048411;28;20020;-71
2021/04/29 06:38:25;;;;;;;28.70;19.83;;;7.00;87.20;;;;;;5045133;28;20040;-69
2021/04/29 06:40:51;;;;;;;25.95;18.83;;;6.90;87.10;;;;;;5051114;28;20032;-74
2021/04/29 06:43:16;;;;;;;28.92;19.95;;;6.90;87.20;;;;;;5050787;28;20101;-72
2021/04/29 06:45:42;;;;;;;30.02;20.67;;;6.80;87.20;;;;;;5048647;28;20036;-69
2021/04/29 06:48:09;;;;;;;30.10;19.80;;;6.80;87.50;;;;;;5049109;28;20418;-72
2021/04/29 06:50:35;;;;;;;29.30;20.50;;;6.90;87.60;;;;;;5048671;28;20028;-69
2021/04/29 06:53:01;;;;;;;28.58;19.80;;;6.80;87.60;;;;;;5031099;28;20063;-72
2021/04/29 06:55:27;;;;;;;26.27;20.20;;;6.90;87.90;;;;;;5050998;28;20036;-71
2021/04/29 06:57:52;;;;;;;28.23;19.48;;;6.90;87.90;;;;;;5049741;28;20396;-71
2021/04/29 07:00:19;;;;;;;27.13;19.48;;;6.90;87.70;;;;;;5052009;28;20140;-73
2021/04/29 07:02:45;;;;;;;28.83;17.75;;;6.90;87.60;;;;;;5051015;28;20300;-70
2021/04/29 07:05:11;;;;;;;29.48;17.58;;;6.90;87.10;;;;;;5036548;28;20376;-70
2021/04/29 07:07:37;;;;;;;26.55;15.32;;;6.90;87.10;;;;;;5032868;28;20424;-72
2021/04/29 07:10:03;;;;;;;19.27;14.18;;;6.90;86.50;;;;;;5029249;28;21037;-73
2021/04/29 07:12:29;;;;;;;16.90;12.38;;;6.80;86.40;;;;;;5026870;28;20037;-73
2021/04/29 07:14:54;;;;;;;17.60;11.73;;;6.90;86.00;;;;;;5031071;28;20082;-72
2021/04/29 07:17:20;;;;;;;19.52;13.32;;;6.80;85.40;;;;;;5029643;28;20141;-72
2021/04/29 07:19:46;;;;;;;17.35;12.75;;;6.80;85.70;;;;;;5029255;28;20094;-71
2021/04/29 07:22:11;;;;;;;17.67;11.93;;;6.80;85.60;;;;;;5028988;28;20130;-72
2021/04/29 07:24:37;;;;;;;15.63;10.90;;;6.80;85.80;;;;;;5030771;28;20448;-70
2021/04/29 07:27:04;;;;;;;14.35;10.73;;;6.80;85.30;;;;;;5025436;28;20029;-70
2021/04/29 07:29:31;;;;;;;16.90;11.27;;;6.80;85.30;;;;;;5027318;28;20458;-70
2021/04/29 07:31:57;;;;;;;15.23;11.95;;;6.70;85.10;;;;;;5026972;28;20088;-71
2021/04/29 07:34:23;;;;;;;16.45;11.88;;;6.70;85.40;;;;;;5028911;28;20040;-73
2021/04/29 07:36:48;;;;;;;17.75;12.45;;;6.80;85.80;;;;;;5026496;28;20112;-70
2021/04/29 07:39:15;;;;;;;17.48;12.80;;;6.80;85.80;;;;;;5022060;28;20056;-68
2021/04/29 07:41:40;;;;;;;17.25;13.38;;;6.80;86.00;;;;;;5028534;28;20021;-71
2021/04/29 07:44:06;;;;;;;17.73;13.77;;;6.80;86.10;;;;;;5028876;28;20060;-69
2021/04/29 07:46:32;;;;;;;17.27;12.80;;;6.80;86.50;;;;;;5027237;28;20528;-69
2021/04/29 07:48:59;;;;;;;20.83;14.40;;;6.70;86.60;;;;;;5028983;28;20583;-69
2021/04/29 07:51:25;;;;;;;20.30;15.13;;;6.80;86.40;;;;;;5028716;28;20061;-71
2021/04/29 07:53:50;;;;;;;21.02;14.57;;;6.70;86.90;;;;;;5033525;28;20097;-72
2021/04/29 07:56:16;;;;;;;18.88;14.45;;;6.80;87.00;;;;;;5028213;28;20116;-68
2021/04/29 07:58:42;;;;;;;21.65;15.80;;;6.90;87.00;;;;;;5031191;28;20059;-70
2021/04/29 08:01:08;;;;;;;21.88;16.30;;;6.90;87.10;;;;;;5023483;28;20034;-74
2021/04/29 08:03:33;;;;;;;23.85;16.33;;;6.90;87.20;;;;;;5022917;28;20114;-72
2021/04/29 08:05:59;;;;;;;20.98;16.25;;;6.90;87.00;;;;;;5024353;28;20025;-70
2021/04/29 08:08:25;;;;;;;18.73;14.13;;;7.00;87.00;;;;;;5025635;28;20525;-69
2021/04/29 08:10:51;;;;;;;21.50;16.48;;;7.00;86.50;;;;;;5040616;28;20028;-68
2021/04/29 08:13:16;;;;;;;25.27;17.00;;;7.00;86.80;;;;;;5038616;28;20033;-72
2021/04/29 08:15:43;;;;;;;22.63;17.75;;;7.10;86.80;;;;;;5037086;28;20041;-69
2021/04/29 08:18:09;;;;;;;24.05;16.27;;;7.10;87.20;;;;;;5027803;28;20060;-70
2021/04/29 08:20:35;;;;;;;21.92;18.35;;;7.20;86.70;;;;;;5033736;28;20037;-71
2021/04/29 08:23:01;;;;;;;22.33;17.35;;;7.30;87.20;;;;;;5033214;28;20037;-69
2021/04/29 08:25:27;;;;;;;20.50;16.83;;;7.30;86.90;;;;;;5032515;28;20324;-69
2021/04/29 08:27:53;;;;;;;23.58;16.88;;;7.40;86.80;;;;;;5041390;28;20521;-69
2021/04/29 08:30:23;;;;;;;19.70;14.63;;;7.40;86.70;;;;;;5040522;28;20477;-68
2021/04/29 08:32:48;;;;;;;20.20;14.15;;;7.40;86.60;;;;;;5057508;28;20048;-70
2021/04/29 08:35:14;;;;;;;22.40;13.65;;;7.50;86.10;;;;;;5045026;28;20041;-68
2021/04/29 08:37:40;;;;;;;18.25;12.45;;;7.40;85.70;;;;;;5056461;28;20098;-69
2021/04/29 08:40:06;;;;;;;18.40;12.45;;;7.50;85.10;;;;;;5057005;28;20033;-69
2021/04/29 08:42:32;;;;;;;21.17;11.02;;;7.50;85.50;;;;;;5055033;28;20838;-69
2021/04/29 08:44:57;;;;;;;14.93;9.52;;;7.40;83.80;;;;;;5055265;28;20143;-70
2021/04/29 09:10:08;;;;;;;13.40;8.43;;;7.90;81.90;;;;;;5055652;28;20487;-69
2021/04/29 09:12:44;;;;;;;14.77;8.90;;;8.10;82.20;;;;;;5051947;28;20021;-69
2021/04/29 09:15:22;;;;;;;15.50;9.30;;;8.10;81.00;;;;;;5050125;28;20047;-69
2021/04/29 09:18:03;;;;;;;14.55;8.73;;;8.20;81.80;;;;;;5065725;28;21036;-69
2021/04/29 09:20:28;;;;;;;14.15;8.98;;;8.30;81.20;;;;;;5061079;28;20047;-69
2021/04/29 09:23:06;;;;;;;15.35;8.60;;;8.50;81.20;;;;;;5059604;28;20033;-73
2021/04/29 09:25:36;;;;;;;11.38;8.05;;;8.50;78.70;;;;;;5058127;28;20049;-69
2021/04/29 09:28:03;;;;;;;12.52;8.10;;;8.40;77.50;;;;;;5062023;28;20040;-69
2021/04/29 09:30:29;;;;;;;12.23;8.23;;;8.40;77.00;;;;;;5050221;28;20921;-70
2021/04/29 09:33:02;;;;;;;12.43;8.60;;;8.50;78.60;;;;;;5061111;28;20028;-70
2021/04/29 09:35:28;;;;;;;14.90;9.15;;;8.80;77.70;;;;;;5057126;28;20067;-70
2021/04/29 09:37:59;;;;;;;12.88;8.88;;;9.10;77.70;;;;;;5061945;28;20555;-71
2021/04/29 09:40:28;;;;;;;15.68;9.35;;;9.00;75.60;;;;;;5061037;28;20506;-68
2021/04/29 09:42:56;;;;;;;16.70;9.23;;;9.00;75.40;;;;;;5061790;28;20060;-70
2021/04/29 09:45:31;;;;;;;12.85;8.80;;;8.80;75.70;;;;;;5058876;28;20063;-70
2021/04/29 09:48:21;;;;;;;14.48;8.77;;;8.90;76.40;;;;;;5058331;28;20492;-69
2021/04/29 09:50:50;;;;;;;12.82;7.55;;;8.90;75.10;;;;;;5048321;28;20041;-68
2021/04/29 09:53:18;;;;;;;14.38;8.35;;;8.70;75.00;;;;;;5042967;28;20151;-68
2021/04/29 09:55:47;;;;;;;13.85;8.60;;;8.70;76.30;;;;;;5056862;28;20434;-73
2021/04/29 09:58:18;;;;;;;12.40;8.75;;;8.90;76.80;;;;;;5061883;28;20474;-70
2021/04/29 10:00:49;;;;;;;13.38;8.48;;;9.00;76.00;;;;;;5061125;28;20040;-69
2021/04/29 10:03:16;;;;;;;15.18;8.15;;;8.80;75.10;;;;;;5059468;28;20086;-71
2021/04/29 10:05:42;;;;;;;14.60;8.40;;;8.70;74.60;;;;;;5062721;28;20112;-69
2021/04/29 10:08:14;;;;;;;13.38;8.52;;;8.70;75.10;;;;;;5065483;28;20139;-70
2021/04/29 10:10:44;;;;;;;13.88;8.55;;;8.90;74.40;;;;;;5051904;28;20470;-69
2021/04/29 10:13:10;;;;;;;11.27;7.75;;;9.10;73.10;;;;;;5066486;28;20116;-73
2021/04/29 10:15:38;;;;;;;13.80;7.97;;;9.00;69.20;;;;;;5044874;28;20163;-70
2021/04/29 10:18:09;;;;;;;14.90;9.10;;;9.10;71.30;;;;;;5055678;28;20559;-71
2021/04/29 10:20:38;;;;;;;13.10;9.05;;;9.40;71.60;;;;;;5059224;28;20709;-70
2021/04/29 10:23:04;;;;;;;11.23;7.45;;;9.30;70.00;;;;;;5054454;28;20029;-71
2021/04/29 10:25:33;;;;;;;12.80;8.73;;;9.50;70.90;;;;;;5057254;28;20045;-71
2021/04/29 10:28:00;;;;;;;11.70;8.32;;;9.40;70.00;;;;;;5051967;28;20503;-69
2021/04/29 10:30:44;;;;;;;13.90;9.20;;;9.30;71.10;;;;;;5063672;28;20045;-70
2021/04/29 10:33:19;;;;;;;14.70;8.90;;;9.30;70.60;;;;;;5061558;28;20029;-71
2021/04/29 10:35:56;;;;;;;14.00;8.80;;;9.10;67.90;;;;;;5053181;28;20032;-69
2021/04/29 10:38:33;;;;;;;14.80;9.15;;;9.10;68.30;;;;;;5047437;28;20037;-70
2021/04/29 10:41:01;;;;;;;14.35;8.65;;;9.10;68.90;;;;;;5063354;28;20116;-69
2021/04/29 10:43:37;;;;;;;15.40;9.10;;;9.20;67.40;;;;;;5062627;28;20046;-73
2021/04/29 10:46:05;;;;;;;11.95;8.25;;;9.40;68.00;;;;;;5051871;28;20086;-70
2021/04/29 10:48:38;;;;;;;13.10;8.38;;;9.50;65.50;;;;;;5058965;28;20044;-70
2021/04/29 10:51:14;;;;;;;16.77;9.43;;;9.60;66.40;;;;;;5062727;28;20132;-72
2021/04/29 10:53:40;;;;;;;12.45;7.97;;;9.60;65.40;;;;;;5049531;28;20033;-72
2021/04/29 10:56:15;;;;;;;11.90;8.45;;;9.60;66.70;;;;;;5059229;28;20079;-72
2021/04/29 10:58:42;;;;;;;12.57;7.63;;;9.60;65.50;;;;;;5039885;28;20124;-71
2021/04/29 11:01:18;;;;;;;11.93;8.63;;;9.60;64.10;;;;;;5033726;28;20060;-74
2021/04/29 11:03:49;;;;;;;13.50;8.82;;;9.70;64.80;;;;;;5039494;28;20025;-69
2021/04/29 11:06:19;;;;;;;17.63;10.02;;;9.90;66.10;;;;;;5034632;28;20025;-68
2021/04/29 11:08:46;;;;;;;15.48;8.90;;;10.10;65.30;;;;;;5043218;28;20665;-69
2021/04/29 11:11:36;;;;;;;16.00;8.93;;;10.10;64.90;;;;;;5041259;28;20052;-70
2021/04/29 11:14:10;;;;;;;12.93;7.85;;;10.20;65.20;;;;;;5040578;28;20041;-71
2021/04/29 11:16:53;;;;;;;14.20;8.35;;;10.10;64.00;;;;;;5041254;28;20037;-68
2021/04/29 11:19:46;;;;;;;13.20;8.02;;;10.30;63.10;;;;;;5042575;28;20043;-68
2021/04/29 11:22:37;;;;;;;12.00;8.00;;;10.30;64.20;;;;;;5030829;28;20045;-69
2021/04/29 11:25:07;;;;;;;16.90;7.65;;;10.40;63.30;;;;;;5046074;28;21177;-71
2021/04/29 11:27:38;;;;;;;15.35;8.10;;;10.60;61.90;;;;;;5037014;28;20034;-68
2021/04/29 11:30:07;;;;;;;11.88;7.45;;;10.50;61.40;;;;;;5034020;28;20036;-68
2021/04/29 11:32:35;;;;;;;13.32;7.68;;;10.60;63.10;;;;;;5040336;28;20040;-69
2021/04/29 11:35:18;;;;;;;17.27;8.80;;;11.00;63.00;;;;;;5038850;28;20049;-68
2021/04/29 11:37:44;;;;;;;11.70;7.10;;;10.90;61.40;;;;;;5033881;28;20037;-72
2021/04/29 11:40:13;;;;;;;11.95;6.78;;;10.90;60.50;;;;;;5038227;28;20126;-69
2021/04/29 11:42:43;;;;;;;14.07;7.63;;;10.90;60.20;;;;;;5038958;28;20499;-70
2021/04/29 11:45:14;;;;;;;13.25;7.78;;;10.50;59.00;;;;;;5026724;28;20247;-70
2021/04/29 11:47:53;;;;;;;11.80;7.38;;;10.60;60.20;;;;;;5039603;28;20480;-70
2021/04/29 11:50:22;;;;;;;12.38;8.10;;;10.60;61.40;;;;;;5030905;28;20493;-71
2021/04/29 11:52:49;;;;;;;10.88;7.22;;;10.50;61.10;;;;;;5034778;28;20037;-71
2021/04/29 11:55:25;;;;;;;13.02;7.43;;;10.30;61.70;;;;;;5033477;28;20048;-70
2021/04/29 11:57:51;;;;;;;12.80;7.72;;;10.40;62.50;;;;;;5034440;28;20072;-70
2021/04/29 12:00:18;;;;;;;12.20;6.95;;;10.20;62.40;;;;;;5028325;28;20064;-72
2021/04/29 12:02:43;;;;;;;11.43;6.85;;;10.20;61.00;;;;;;5032578;28;20040;-69
2021/04/29 12:05:09;;;;;;;14.25;7.50;;;10.10;61.40;;;;;;5036333;28;20052;-69
2021/04/29 12:07:42;;;;;;;13.82;7.70;;;10.20;62.20;;;;;;5034902;28;20108;-68
2021/04/29 12:10:08;;;;;;;13.88;7.43;;;10.20;63.10;;;;;;5036953;28;20077;-70
2021/04/29 12:12:34;;;;;;;16.92;7.90;;;10.30;63.00;;;;;;5036430;28;20071;-68
2021/04/29 12:14:59;;;;;;;14.35;7.97;;;10.40;62.40;;;;;;5035155;28;20029;-68
2021/04/29 12:17:26;;;;;;;13.07;7.65;;;10.60;63.60;;;;;;5050169;28;20117;-68
2021/04/29 12:19:54;;;;;;;13.05;7.55;;;10.60;63.60;;;;;;5056333;28;20045;-69
2021/04/29 12:22:25;;;;;;;15.10;7.28;;;10.60;62.80;;;;;;5060603;28;20028;-70
2021/04/29 12:24:51;;;;;;;13.85;7.57;;;10.50;63.10;;;;;;5060740;28;20037;-69
2021/04/29 12:27:19;;;;;;;12.18;6.80;;;10.20;63.60;;;;;;5057775;28;20059;-72
2021/04/29 12:29:47;;;;;;;11.68;7.15;;;10.00;64.10;;;;;;5057610;28;20037;-68
2021/04/29 12:32:13;;;;;;;14.18;7.55;;;9.80;65.00;;;;;;5057701;28;20037;-72
2021/04/29 12:34:43;;;;;;;13.93;6.75;;;9.70;65.60;;;;;;5062994;28;20033;-72
2021/04/29 12:37:09;;;;;;;9.63;6.15;;;9.70;66.50;;;;;;5060089;28;20430;-71
2021/04/29 12:39:42;;;;;;;12.32;6.47;;;9.60;64.80;;;;;;5061872;28;20061;-68
2021/04/29 12:42:13;;;;;;;11.25;6.15;;;9.60;64.50;;;;;;5064261;28;20468;-68
2021/04/29 12:44:55;;;;;;;11.85;6.13;;;9.50;63.80;;;;;;5064603;28;20061;-69
2021/04/29 12:47:33;;;;;;;15.05;6.65;;;9.50;64.80;;;;;;5067954;28;20052;-68
2021/04/29 12:50:08;;;;;;;13.75;6.78;;;9.60;65.60;;;;;;5061598;28;20403;-68
2021/04/29 12:52:45;;;;;;;;;;;9.60;66.30;;;;;;5060975;28;20045;-70
2021/04/29 12:55:16;;;;;;;15.70;6.90;;;9.60;67.10;;;;;;5062574;28;19932;-71
2021/04/29 12:57:41;;;;;;;15.00;6.47;;;9.70;66.30;;;;;;5063844;28;20040;-73
2021/04/29 13:00:10;;;;;;;13.68;7.00;;;9.90;66.10;;;;;;5066848;28;20052;-70
2021/04/29 13:02:35;;;;;;;12.77;6.38;;;10.00;64.80;;;;;;5062743;28;20033;-70
2021/04/29 13:05:01;;;;;;;12.55;6.72;;;10.00;64.70;;;;;;5064852;28;20051;-69